Time;durP1;ratioP1;P1;durP2;ratioP2;P2;SDS_P1;SDS_P2;PMS_P1;PMS_P2;Temp;Humidity;BMP_temperature;BMP_pressure;BME280_temperature;BME280_humidity;BME280_pressure;Samples;Min_cycle;Max_cycle;Signal;HPM_P1;HPM_P2
2023/03/09 00:01:21;;;;;;;0.93;0.90;;;9.30;99.90;;;;;;5070831;28;20998;-69
2023/03/09 00:03:48;;;;;;;0.30;0.30;;;9.40;99.90;;;;;;5071933;28;21218;-69
2023/03/09 00:06:15;;;;;;;2.20;0.37;;;9.40;99.90;;;;;;5071652;28;20655;-69
2023/03/09 00:08:43;;;;;;;0.33;0.33;;;9.40;99.90;;;;;;5070920;28;20621;-69
2023/03/09 00:11:10;;;;;;;0.60;0.40;;;9.40;99.90;;;;;;5071102;28;20768;-69
2023/03/09 00:13:37;;;;;;;0.93;0.50;;;9.40;99.90;;;;;;5071275;28;20634;-69
2023/03/09 00:16:12;;;;;;;0.40;0.30;;;9.40;99.90;;;;;;5070770;28;20649;-70
2023/03/09 00:18:40;;;;;;;0.30;0.20;;;9.40;99.90;;;;;;5071046;28;20663;-69
2023/03/09 00:21:06;;;;;;;0.70;0.50;;;9.40;99.90;;;;;;5070823;28;21014;-69
2023/03/09 00:23:36;;;;;;;0.47;0.47;;;9.40;99.90;;;;;;5071442;28;20617;-69
2023/03/09 00:26:05;;;;;;;0.30;0.27;;;9.40;99.90;;;;;;5071920;28;20759;-70
2023/03/09 00:28:32;;;;;;;0.90;0.43;;;9.50;99.90;;;;;;5071165;28;20646;-69
2023/03/09 00:31:04;;;;;;;1.33;0.60;;;9.50;99.90;;;;;;5070736;28;20707;-69
2023/03/09 00:33:30;;;;;;;0.40;0.33;;;9.40;99.90;;;;;;5071072;28;20628;-70
2023/03/09 00:35:57;;;;;;;0.57;0.57;;;9.50;99.90;;;;;;5070792;28;20646;-69
2023/03/09 00:38:25;;;;;;;0.30;0.20;;;9.50;99.90;;;;;;5071146;28;21513;-70
2023/03/09 00:40:51;;;;;;;0.40;0.40;;;9.50;99.90;;;;;;5070277;28;20663;-69
2023/03/09 00:43:20;;;;;;;0.40;0.30;;;9.50;99.90;;;;;;5070554;28;20659;-70
2023/03/09 00:45:46;;;;;;;1.27;0.20;;;9.50;99.90;;;;;;5070096;28;20672;-70
2023/03/09 00:48:13;;;;;;;0.40;0.20;;;9.40;99.90;;;;;;5070439;28;20624;-70
2023/03/09 00:50:40;;;;;;;1.00;0.57;;;9.30;99.90;;;;;;5070560;28;20679;-71
2023/03/09 00:53:07;;;;;;;0.50;0.20;;;9.30;99.90;;;;;;5071051;28;20629;-70
2023/03/09 00:55:34;;;;;;;0.60;0.47;;;9.20;99.90;;;;;;5070505;28;21222;-70
2023/03/09 00:58:01;;;;;;;0.40;0.30;;;9.20;99.90;;;;;;5070526;28;20627;-70
2023/03/09 01:00:32;;;;;;;5.10;0.77;;;9.10;99.90;;;;;;5070874;28;20657;-70
2023/03/09 01:02:59;;;;;;;0.30;0.20;;;9.10;99.90;;;;;;5069914;28;20629;-70
2023/03/09 01:05:26;;;;;;;0.30;0.20;;;9.00;99.90;;;;;;5070774;28;20645;-70
2023/03/09 01:07:52;;;;;;;0.40;0.40;;;8.90;99.90;;;;;;5070440;28;21186;-70
2023/03/09 01:10:19;;;;;;;0.37;0.23;;;8.90;99.90;;;;;;5069536;28;20657;-70
2023/03/09 01:12:46;;;;;;;0.40;0.40;;;8.80;99.90;;;;;;5069705;28;20628;-71
2023/03/09 01:15:14;;;;;;;0.30;0.20;;;8.80;99.90;;;;;;5067112;28;21170;-69
2023/03/09 01:17:43;;;;;;;0.30;0.20;;;8.70;99.90;;;;;;5069830;28;20564;-70
2023/03/09 01:20:11;;;;;;;0.30;0.15;;;8.60;99.90;;;;;;5069725;28;20204;-70
2023/03/09 01:22:38;;;;;;;0.30;0.20;;;8.60;99.90;;;;;;5068180;28;20190;-69
2023/03/09 01:25:06;;;;;;;0.40;0.40;;;8.50;99.90;;;;;;5070664;28;20202;-70
2023/03/09 01:27:32;;;;;;;0.30;0.20;;;8.50;99.90;;;;;;5070404;28;20624;-69
2023/03/09 01:29:59;;;;;;;0.30;0.20;;;8.50;99.90;;;;;;5069154;28;20492;-70
2023/03/09 01:32:26;;;;;;;0.30;0.20;;;8.40;99.90;;;;;;5070142;28;20656;-70
2023/03/09 01:34:54;;;;;;;0.40;0.32;;;8.40;99.90;;;;;;5054259;28;20596;-70
2023/03/09 01:37:21;;;;;;;0.30;0.10;;;8.40;99.90;;;;;;5070160;28;20207;-70
2023/03/09 01:39:48;;;;;;;0.73;0.40;;;8.40;99.90;;;;;;5069407;28;20278;-70
2023/03/09 01:42:14;;;;;;;0.40;0.40;;;8.40;99.90;;;;;;5070230;28;20223;-70
2023/03/09 01:44:41;;;;;;;0.30;0.20;;;8.40;99.90;;;;;;5068969;28;20206;-70
2023/03/09 01:47:08;;;;;;;0.73;0.30;;;8.30;99.90;;;;;;5069348;28;20223;-69
2023/03/09 01:49:41;;;;;;;0.30;0.30;;;8.10;99.90;;;;;;5069286;28;20202;-69
2023/03/09 01:52:18;;;;;;;0.30;0.20;;;8.20;99.90;;;;;;5070138;28;20710;-69
2023/03/09 01:54:49;;;;;;;1.30;0.30;;;8.20;99.90;;;;;;5070183;28;20191;-70
2023/03/09 01:57:22;;;;;;;0.30;0.20;;;8.20;99.90;;;;;;5070354;28;20225;-70
2023/03/09 01:59:51;;;;;;;0.30;0.20;;;8.20;99.90;;;;;;5069408;28;20290;-69
2023/03/09 02:02:18;;;;;;;0.30;0.20;;;8.20;99.90;;;;;;5069438;28;20223;-69
2023/03/09 02:04:48;;;;;;;0.60;0.30;;;8.30;99.90;;;;;;5069014;28;20282;-70
2023/03/09 02:07:20;;;;;;;0.30;0.20;;;8.40;99.90;;;;;;5069652;28;20215;-70
2023/03/09 02:09:50;;;;;;;0.30;0.20;;;8.60;99.90;;;;;;5068899;28;20665;-69
2023/03/09 02:12:20;;;;;;;0.45;0.45;;;8.20;99.90;;;;;;5069989;28;20245;-70
2023/03/09 02:14:48;;;;;;;0.30;0.20;;;8.10;99.90;;;;;;5069827;28;20203;-69
2023/03/09 02:17:16;;;;;;;0.30;0.20;;;8.00;99.90;;;;;;5069130;28;20341;-70
2023/03/09 02:20:09;;;;;;;0.40;0.40;;;8.30;99.90;;;;;;5069286;28;20673;-70
2023/03/09 02:22:39;;;;;;;0.30;0.20;;;7.90;99.90;;;;;;5069106;28;20200;-70
2023/03/09 02:25:17;;;;;;;0.30;0.20;;;7.90;99.90;;;;;;5070254;28;20282;-70
2023/03/09 02:27:46;;;;;;;0.30;0.20;;;7.90;99.90;;;;;;5069547;28;20195;-70
2023/03/09 02:30:14;;;;;;;0.30;0.20;;;7.80;99.90;;;;;;5068556;28;20187;-70
2023/03/09 02:32:41;;;;;;;0.30;0.20;;;7.80;99.90;;;;;;5061255;28;20696;-70
2023/03/09 02:35:09;;;;;;;0.40;0.22;;;7.80;99.90;;;;;;5069966;28;20202;-71
2023/03/09 02:37:39;;;;;;;0.30;0.20;;;7.80;99.90;;;;;;5069815;28;20200;-70
2023/03/09 02:40:13;;;;;;;0.30;0.20;;;7.80;99.90;;;;;;5068986;28;20207;-70
2023/03/09 02:42:43;;;;;;;0.30;0.20;;;7.80;99.90;;;;;;5069043;28;20195;-70
2023/03/09 02:45:16;;;;;;;0.30;0.20;;;7.80;99.90;;;;;;5068930;28;20203;-69
2023/03/09 02:47:46;;;;;;;0.30;0.20;;;7.90;99.90;;;;;;5069464;28;20653;-70
2023/03/09 02:50:14;;;;;;;4.00;0.30;;;7.60;99.90;;;;;;5068819;28;20329;-70
2023/03/09 02:52:41;;;;;;;0.30;0.10;;;8.00;99.90;;;;;;5069109;28;20223;-70
2023/03/09 02:55:09;;;;;;;0.60;0.20;;;7.80;99.90;;;;;;5068717;28;20253;-71
2023/03/09 02:57:37;;;;;;;0.30;0.20;;;;;;;;;;5068735;28;20198;-70
2023/03/09 03:00:08;;;;;;;0.30;0.20;;;8.00;99.90;;;;;;5068458;28;20553;-69
2023/03/09 03:02:38;;;;;;;0.40;0.20;;;7.90;99.90;;;;;;5069749;28;20284;-70
2023/03/09 03:05:07;;;;;;;0.30;0.25;;;7.80;99.90;;;;;;5070559;28;20287;-69
2023/03/09 03:07:34;;;;;;;1.05;0.45;;;7.90;99.90;;;;;;5072702;28;20194;-69
2023/03/09 03:10:01;;;;;;;0.30;0.28;;;8.00;99.90;;;;;;5071751;28;20195;-70
2023/03/09 03:12:28;;;;;;;0.68;0.32;;;8.00;99.90;;;;;;5072824;28;20330;-69
2023/03/09 03:14:54;;;;;;;0.30;0.20;;;8.10;99.90;;;;;;5072841;28;20199;-69
2023/03/09 03:17:21;;;;;;;0.50;0.35;;;8.20;99.90;;;;;;5072065;28;20219;-69
2023/03/09 03:19:50;;;;;;;0.30;0.22;;;8.10;99.90;;;;;;5071960;28;20187;-69
2023/03/09 03:22:17;;;;;;;0.30;0.20;;;8.20;99.90;;;;;;5071927;28;20500;-69
2023/03/09 03:24:45;;;;;;;0.40;0.40;;;8.20;99.90;;;;;;5072459;28;21068;-69
2023/03/09 03:27:12;;;;;;;0.30;0.30;;;8.20;99.90;;;;;;5072778;28;20314;-69
2023/03/09 03:29:41;;;;;;;0.60;0.40;;;8.20;99.90;;;;;;5072436;28;20630;-70
2023/03/09 03:32:09;;;;;;;0.30;0.20;;;8.20;99.90;;;;;;5072089;28;20747;-69
2023/03/09 03:34:38;;;;;;;0.40;0.30;;;8.30;99.90;;;;;;5072463;28;20979;-68
2023/03/09 03:37:08;;;;;;;0.30;0.20;;;8.20;99.90;;;;;;5071860;28;20663;-68
2023/03/09 03:39:35;;;;;;;0.30;0.20;;;8.30;99.90;;;;;;5071818;28;20893;-70
2023/03/09 03:42:03;;;;;;;0.30;0.20;;;8.20;99.90;;;;;;5071871;28;20223;-68
2023/03/09 03:44:30;;;;;;;0.30;0.20;;;8.40;99.90;;;;;;5072678;28;20188;-69
2023/03/09 03:46:57;;;;;;;0.30;0.20;;;8.10;99.90;;;;;;5071991;28;20223;-68
2023/03/09 03:49:25;;;;;;;0.30;0.20;;;;;;;;;;5071757;28;20196;-69
2023/03/09 03:51:53;;;;;;;0.45;0.28;;;8.00;99.90;;;;;;5071099;28;20799;-69
2023/03/09 03:54:22;;;;;;;0.30;0.20;;;8.00;99.90;;;;;;5072151;28;20188;-69
2023/03/09 03:56:50;;;;;;;0.52;0.35;;;7.80;99.90;;;;;;5070208;28;20276;-69
2023/03/09 03:59:17;;;;;;;0.30;0.20;;;7.90;99.90;;;;;;5071418;28;20203;-69
2023/03/09 04:01:44;;;;;;;0.30;0.30;;;7.90;99.90;;;;;;5071142;28;20215;-68
2023/03/09 04:04:11;;;;;;;1.45;0.40;;;7.90;99.90;;;;;;5071237;28;20191;-68
2023/03/09 04:06:40;;;;;;;0.63;0.63;;;7.80;99.90;;;;;;5071795;28;20310;-68
2023/03/09 04:09:08;;;;;;;0.40;0.30;;;7.80;99.90;;;;;;5071494;28;20200;-69
2023/03/09 04:11:37;;;;;;;0.30;0.20;;;7.80;99.90;;;;;;5071374;28;20302;-70
2023/03/09 04:14:08;;;;;;;0.30;0.20;;;7.80;99.90;;;;;;5071642;28;20204;-67
2023/03/09 04:16:37;;;;;;;0.30;0.20;;;7.80;99.90;;;;;;5071105;28;20240;-70
2023/03/09 04:19:04;;;;;;;0.43;0.30;;;7.80;99.90;;;;;;5071146;28;20206;-68
2023/03/09 04:21:31;;;;;;;0.30;0.20;;;7.80;99.90;;;;;;5071034;28;20700;-69
2023/03/09 04:23:57;;;;;;;0.50;0.50;;;7.90;99.90;;;;;;5071271;28;20227;-68
2023/03/09 04:26:24;;;;;;;0.30;0.20;;;7.80;99.90;;;;;;5071055;28;20235;-68
2023/03/09 04:28:52;;;;;;;1.20;1.10;;;7.70;99.90;;;;;;5071124;28;20199;-68
2023/03/09 04:31:19;;;;;;;0.32;0.32;;;7.80;99.90;;;;;;5062616;28;20231;-68
2023/03/09 04:33:46;;;;;;;0.50;0.30;;;7.80;99.90;;;;;;5071681;28;20195;-69
2023/03/09 04:36:13;;;;;;;0.30;0.20;;;;;;;;;;5071511;28;20223;-68
2023/03/09 04:38:40;;;;;;;0.50;0.50;;;;;;;;;;5071125;28;20195;-68
2023/03/09 04:41:07;;;;;;;1.08;0.95;;;7.70;99.90;;;;;;5070419;28;20234;-68
2023/03/09 04:43:34;;;;;;;2.70;0.50;;;7.80;99.90;;;;;;5070997;28;20191;-69
2023/03/09 04:46:02;;;;;;;0.45;0.45;;;7.80;99.90;;;;;;5070882;28;20583;-68
2023/03/09 04:48:29;;;;;;;0.30;0.30;;;7.80;99.90;;;;;;5070935;28;20249;-68
2023/03/09 04:50:56;;;;;;;1.40;0.77;;;7.80;99.90;;;;;;5070744;28;20645;-68
2023/03/09 04:53:23;;;;;;;0.30;0.20;;;;;;;;;;5070851;28;20628;-68
2023/03/09 04:55:50;;;;;;;0.30;0.20;;;7.70;99.90;;;;;;5054324;28;20215;-68
2023/03/09 04:58:17;;;;;;;0.47;0.45;;;;;;;;;;5069357;28;20196;-68
2023/03/09 05:00:44;;;;;;;0.40;0.20;;;7.60;99.90;;;;;;5070640;28;20215;-68
2023/03/09 05:03:12;;;;;;;0.30;0.20;;;7.80;99.90;;;;;;5071012;28;20196;-68
2023/03/09 05:05:39;;;;;;;0.50;0.30;;;;;;;;;;5070520;28;20216;-68
2023/03/09 05:08:06;;;;;;;0.30;0.20;;;7.70;99.90;;;;;;5070356;28;20575;-69
2023/03/09 05:10:33;;;;;;;0.40;0.30;;;;;;;;;;5070031;28;20216;-68
2023/03/09 05:13:00;;;;;;;0.30;0.20;;;;;;;;;;5069974;28;20314;-69
2023/03/09 05:15:27;;;;;;;0.30;0.20;;;;;;;;;;5070739;28;20233;-68
2023/03/09 05:17:54;;;;;;;0.30;0.20;;;;;;;;;;5070498;28;20191;-69
2023/03/09 05:20:24;;;;;;;0.40;0.40;;;;;;;;;;5069846;28;20188;-68
2023/03/09 05:22:52;;;;;;;0.30;0.20;;;;;;;;;;5070072;28;20199;-68
2023/03/09 05:25:19;;;;;;;2.05;0.70;;;;;;;;;;5069640;28;20187;-68
2023/03/09 05:27:46;;;;;;;0.40;0.28;;;7.70;99.90;;;;;;5069836;28;20192;-68
2023/03/09 05:30:13;;;;;;;0.60;0.40;;;8.00;99.90;;;;;;5069493;28;20197;-68
2023/03/09 05:32:40;;;;;;;0.73;0.35;;;8.00;99.90;;;;;;5069698;28;20221;-68
2023/03/09 05:35:08;;;;;;;0.57;0.50;;;7.80;99.90;;;;;;5070546;28;20191;-68
2023/03/09 05:37:36;;;;;;;0.85;0.28;;;7.90;99.90;;;;;;5070524;28;20226;-68
2023/03/09 05:40:04;;;;;;;0.30;0.20;;;7.90;99.90;;;;;;5068847;28;20214;-69
2023/03/09 05:42:32;;;;;;;3.15;0.70;;;7.90;99.90;;;;;;5069875;28;20210;-68
2023/03/09 05:45:00;;;;;;;0.50;0.20;;;7.90;99.90;;;;;;5069708;28;20669;-68
2023/03/09 05:47:27;;;;;;;0.65;0.43;;;7.90;99.90;;;;;;5070579;28;20649;-68
2023/03/09 05:49:53;;;;;;;1.15;0.75;;;8.00;99.90;;;;;;5069220;28;20753;-68
2023/03/09 05:52:20;;;;;;;0.47;0.47;;;8.00;99.90;;;;;;5069717;28;20337;-68
2023/03/09 05:54:48;;;;;;;0.60;0.60;;;8.00;99.90;;;;;;5070300;28;20621;-68
2023/03/09 05:57:16;;;;;;;0.30;0.20;;;8.10;99.90;;;;;;5069793;28;20650;-69
2023/03/09 05:59:43;;;;;;;0.70;0.33;;;;;;;;;;5069527;28;20668;-68
2023/03/09 06:02:10;;;;;;;0.30;0.30;;;;;;;;;;5064688;28;20649;-68
2023/03/09 06:04:37;;;;;;;0.30;0.23;;;;;;;;;;5069153;28;20621;-69
2023/03/09 06:07:04;;;;;;;0.30;0.20;;;;;;;;;;5068501;28;20736;-68
2023/03/09 06:09:31;;;;;;;1.15;0.73;;;7.90;99.90;;;;;;5067738;28;21152;-68
2023/03/09 06:11:59;;;;;;;0.97;0.30;;;7.90;99.90;;;;;;5066373;28;20241;-68
2023/03/09 06:14:26;;;;;;;0.40;0.30;;;7.90;99.90;;;;;;5069649;28;20986;-67
2023/03/09 06:16:52;;;;;;;0.57;0.57;;;7.80;99.90;;;;;;5069325;28;21007;-68
2023/03/09 06:19:19;;;;;;;1.53;1.13;;;7.90;99.90;;;;;;5068999;28;20610;-69
2023/03/09 06:21:46;;;;;;;0.30;0.30;;;8.10;99.90;;;;;;5068641;28;20649;-68
2023/03/09 06:24:13;;;;;;;0.80;0.80;;;7.90;99.90;;;;;;5069703;28;20626;-68
2023/03/09 06:26:40;;;;;;;4.93;0.83;;;7.90;99.90;;;;;;5069166;28;20651;-68
2023/03/09 06:29:08;;;;;;;0.60;0.60;;;8.00;99.90;;;;;;5068873;28;20628;-69
2023/03/09 06:31:34;;;;;;;0.80;0.47;;;8.00;99.90;;;;;;5068784;28;21012;-68
2023/03/09 06:34:02;;;;;;;0.60;0.60;;;7.80;99.90;;;;;;5068444;28;20616;-70
2023/03/09 06:36:29;;;;;;;0.80;0.80;;;8.00;99.90;;;;;;5052027;28;21248;-68
2023/03/09 06:38:55;;;;;;;4.87;1.83;;;8.20;99.90;;;;;;5069045;28;21175;-68
2023/03/09 06:41:29;;;;;;;2.77;1.67;;;8.10;99.90;;;;;;5070805;28;20685;-68
2023/03/09 06:43:56;;;;;;;1.00;0.60;;;8.10;99.90;;;;;;5073010;28;20629;-68
2023/03/09 06:46:24;;;;;;;3.50;0.87;;;7.90;99.90;;;;;;5071967;28;20649;-69
2023/03/09 06:48:51;;;;;;;2.50;0.60;;;8.10;99.90;;;;;;5072187;28;20625;-68
2023/03/09 06:51:18;;;;;;;0.40;0.40;;;8.20;99.90;;;;;;5071462;28;21020;-68
2023/03/09 06:53:45;;;;;;;0.40;0.37;;;8.20;99.90;;;;;;5072114;28;20621;-70
2023/03/09 06:56:12;;;;;;;1.03;1.03;;;8.20;99.90;;;;;;5072526;28;20659;-70
2023/03/09 06:58:39;;;;;;;0.90;0.90;;;8.20;99.90;;;;;;5071728;28;20621;-70
2023/03/09 07:01:07;;;;;;;1.10;0.93;;;8.20;99.90;;;;;;5071066;28;20659;-71
2023/03/09 07:03:35;;;;;;;0.70;0.63;;;8.20;99.90;;;;;;5071865;28;20622;-70
2023/03/09 07:06:02;;;;;;;4.83;0.90;;;8.20;99.90;;;;;;5068506;28;20645;-71
2023/03/09 07:08:29;;;;;;;1.40;0.70;;;8.30;99.90;;;;;;5069026;28;20629;-68
2023/03/09 07:10:56;;;;;;;0.57;0.57;;;8.70;99.90;;;;;;5069398;28;20676;-68
2023/03/09 07:13:24;;;;;;;1.37;0.40;;;8.30;99.90;;;;;;5077305;28;20699;-68
2023/03/09 07:15:51;;;;;;;1.10;0.70;;;8.20;99.90;;;;;;5083240;28;21218;-68
2023/03/09 07:18:17;;;;;;;0.47;0.47;;;8.30;99.90;;;;;;5072682;28;20632;-69
2023/03/09 07:20:45;;;;;;;1.10;0.77;;;8.40;99.90;;;;;;5071803;28;20645;-68
2023/03/09 07:23:12;;;;;;;3.47;0.60;;;8.50;99.90;;;;;;5072613;28;20645;-68
2023/03/09 07:25:40;;;;;;;0.40;0.40;;;8.50;99.90;;;;;;5072013;28;20648;-68
2023/03/09 07:28:08;;;;;;;0.30;0.27;;;8.60;99.90;;;;;;5071857;28;20628;-70
2023/03/09 07:30:37;;;;;;;0.77;0.77;;;8.60;99.90;;;;;;5071420;28;20673;-68
2023/03/09 07:33:03;;;;;;;0.50;0.30;;;8.50;99.90;;;;;;5070869;28;20683;-68
2023/03/09 07:35:30;;;;;;;1.00;0.80;;;8.60;99.90;;;;;;5071123;28;20740;-67
2023/03/09 07:37:58;;;;;;;0.67;0.50;;;8.70;99.90;;;;;;5071713;28;20631;-69
2023/03/09 07:40:25;;;;;;;0.30;0.30;;;8.80;99.90;;;;;;5070816;28;21333;-68
2023/03/09 07:42:53;;;;;;;0.90;0.57;;;;;;;;;;5065807;28;20981;-67
2023/03/09 07:45:21;;;;;;;1.80;1.33;;;9.40;99.90;;;;;;5071401;28;20614;-68
2023/03/09 07:47:48;;;;;;;1.17;1.07;;;9.50;99.90;;;;;;5071860;28;20613;-69
2023/03/09 07:50:14;;;;;;;0.30;0.20;;;9.50;99.90;;;;;;5059533;28;20627;-69
2023/03/09 07:52:42;;;;;;;0.30;0.20;;;9.60;99.90;;;;;;5071648;28;20760;-68
2023/03/09 07:55:13;;;;;;;0.30;0.20;;;9.50;99.90;;;;;;5069423;28;20629;-68
2023/03/09 07:57:40;;;;;;;0.30;0.20;;;;;;;;;;5070903;28;20625;-67
2023/03/09 08:00:12;;;;;;;1.13;1.03;;;9.70;99.90;;;;;;5070635;28;20705;-70
2023/03/09 08:02:40;;;;;;;0.30;0.20;;;9.90;99.90;;;;;;5070716;28;20729;-70
2023/03/09 08:05:09;;;;;;;0.30;0.20;;;9.90;99.90;;;;;;5071184;28;20661;-69
2023/03/09 08:07:35;;;;;;;0.90;0.47;;;9.80;99.90;;;;;;5070505;28;20617;-67
2023/03/09 08:10:03;;;;;;;0.40;0.20;;;;;;;;;;5069083;28;20618;-69
2023/03/09 08:12:31;;;;;;;0.30;0.20;;;9.90;99.90;;;;;;5070416;28;20661;-69
2023/03/09 08:14:58;;;;;;;0.60;0.40;;;9.90;99.90;;;;;;5070968;28;20621;-69
2023/03/09 08:17:25;;;;;;;0.90;0.40;;;9.80;99.90;;;;;;5069961;28;20653;-68
2023/03/09 08:19:51;;;;;;;0.50;0.30;;;10.10;99.90;;;;;;5057036;28;21449;-67
2023/03/09 08:22:18;;;;;;;0.30;0.20;;;10.00;99.90;;;;;;5069679;28;20646;-67
2023/03/09 08:24:45;;;;;;;0.40;0.30;;;10.20;99.90;;;;;;5071225;28;20633;-68
2023/03/09 08:27:12;;;;;;;0.53;0.30;;;10.20;99.60;;;;;;5070107;28;20993;-68
2023/03/09 08:29:40;;;;;;;0.47;0.30;;;10.50;99.90;;;;;;5068328;28;20637;-67
2023/03/09 08:32:07;;;;;;;0.50;0.30;;;10.30;99.80;;;;;;5070086;28;20733;-67
2023/03/09 08:34:34;;;;;;;0.30;0.20;;;;;;;;;;5068657;28;21199;-69
2023/03/09 08:37:01;;;;;;;0.30;0.20;;;10.40;99.90;;;;;;5068123;28;20657;-68
2023/03/09 08:39:28;;;;;;;1.33;0.63;;;10.30;99.20;;;;;;5069539;28;20645;-68
2023/03/09 08:41:55;;;;;;;0.30;0.20;;;10.40;99.60;;;;;;5069864;28;20667;-67
2023/03/09 08:44:21;;;;;;;1.03;0.20;;;10.40;99.40;;;;;;5070267;28;21286;-67
2023/03/09 08:46:50;;;;;;;0.30;0.20;;;10.50;99.60;;;;;;5069924;28;20661;-67
2023/03/09 08:49:17;;;;;;;0.30;0.20;;;10.60;98.80;;;;;;5069493;28;20610;-67
2023/03/09 08:51:43;;;;;;;0.30;0.20;;;10.30;99.90;;;;;;5069108;28;21047;-69
2023/03/09 08:54:10;;;;;;;0.40;0.30;;;10.40;99.30;;;;;;5069599;28;20998;-67
2023/03/09 08:56:37;;;;;;;4.83;0.97;;;10.40;99.10;;;;;;5069557;28;20661;-69
2023/03/09 08:59:04;;;;;;;4.30;1.30;;;10.50;99.80;;;;;;5069096;28;20622;-69
2023/03/09 09:01:31;;;;;;;0.97;0.67;;;10.60;99.50;;;;;;5069849;28;20644;-68
2023/03/09 09:03:59;;;;;;;0.80;0.60;;;10.80;99.10;;;;;;5068857;28;20625;-69
2023/03/09 09:06:26;;;;;;;0.30;0.20;;;10.90;98.90;;;;;;5069120;28;20749;-69
2023/03/09 09:08:54;;;;;;;0.50;0.40;;;11.00;98.50;;;;;;5069383;28;21162;-68
2023/03/09 09:11:21;;;;;;;0.30;0.27;;;11.10;99.20;;;;;;5069353;28;20660;-68
2023/03/09 09:13:47;;;;;;;1.37;0.30;;;11.20;99.30;;;;;;5069902;28;20684;-68
2023/03/09 09:16:16;;;;;;;0.30;0.20;;;11.00;99.90;;;;;;5069205;28;20641;-68
2023/03/09 09:18:42;;;;;;;0.40;0.30;;;10.50;99.90;;;;;;5068192;28;20617;-68
2023/03/09 09:21:13;;;;;;;0.50;0.40;;;10.20;99.90;;;;;;5069792;28;20788;-67
2023/03/09 09:23:41;;;;;;;0.30;0.20;;;9.90;99.90;;;;;;5069715;28;20991;-67
2023/03/09 09:26:08;;;;;;;0.40;0.30;;;9.80;99.90;;;;;;5069529;28;20641;-68
2023/03/09 09:28:35;;;;;;;6.63;0.40;;;9.70;99.90;;;;;;5068372;28;21313;-67
2023/03/09 09:31:04;;;;;;;0.50;0.40;;;9.90;99.90;;;;;;5069402;28;20658;-69
2023/03/09 09:33:33;;;;;;;1.27;0.47;;;10.10;99.90;;;;;;5057893;28;21023;-68
2023/03/09 09:36:01;;;;;;;0.57;0.40;;;9.90;99.90;;;;;;5053710;28;20684;-67
2023/03/09 09:38:31;;;;;;;0.60;0.30;;;9.90;99.90;;;;;;5049215;28;20632;-67
2023/03/09 09:41:03;;;;;;;0.70;0.20;;;10.00;99.90;;;;;;5056698;28;20665;-68
2023/03/09 09:43:31;;;;;;;0.63;0.50;;;10.10;99.90;;;;;;5057188;28;20633;-68
2023/03/09 09:46:02;;;;;;;3.73;0.53;;;10.20;99.90;;;;;;5068144;28;20649;-68
2023/03/09 09:48:30;;;;;;;1.10;0.60;;;10.40;99.90;;;;;;5069090;28;20725;-69
2023/03/09 09:51:11;;;;;;;0.30;0.20;;;10.40;99.90;;;;;;5052797;28;20712;-69
2023/03/09 09:53:53;;;;;;;0.30;0.20;;;10.50;99.90;;;;;;5069055;28;21259;-68
2023/03/09 09:56:25;;;;;;;0.50;0.50;;;10.90;99.90;;;;;;5068128;28;20653;-68
2023/03/09 09:58:58;;;;;;;0.50;0.30;;;10.70;99.90;;;;;;5068415;28;20626;-69
2023/03/09 10:01:37;;;;;;;0.30;0.20;;;10.60;99.90;;;;;;5068587;28;20760;-68
2023/03/09 10:04:10;;;;;;;1.90;0.30;;;10.40;99.90;;;;;;5069380;28;20712;-69
2023/03/09 10:06:39;;;;;;;0.30;0.13;;;10.60;99.90;;;;;;5062729;28;20681;-70
2023/03/09 10:09:11;;;;;;;0.50;0.20;;;10.50;99.90;;;;;;5047379;28;20614;-68
2023/03/09 10:11:42;;;;;;;0.40;0.33;;;10.70;99.90;;;;;;5049211;28;20650;-68
2023/03/09 10:14:21;;;;;;;0.40;0.27;;;11.00;99.90;;;;;;5068692;28;20657;-68
2023/03/09 10:16:54;;;;;;;0.70;0.43;;;11.10;99.90;;;;;;5072388;28;20645;-69
2023/03/09 10:19:26;;;;;;;0.50;0.40;;;10.90;99.90;;;;;;5072427;28;21516;-67
2023/03/09 10:21:57;;;;;;;7.30;0.63;;;11.20;99.90;;;;;;5072657;28;20746;-68
2023/03/09 10:24:27;;;;;;;0.43;0.37;;;11.20;99.90;;;;;;5073502;28;20629;-67
2023/03/09 10:26:58;;;;;;;0.90;0.90;;;11.10;99.90;;;;;;5072551;28;20664;-68
2023/03/09 10:29:35;;;;;;;0.30;0.20;;;11.20;99.90;;;;;;5071708;28;20621;-68
2023/03/09 10:32:07;;;;;;;0.50;0.47;;;11.00;99.90;;;;;;5072326;28;20637;-67
2023/03/09 10:34:44;;;;;;;8.03;0.77;;;10.90;99.90;;;;;;5068328;28;21328;-67
2023/03/09 10:37:18;;;;;;;0.40;0.27;;;10.80;99.90;;;;;;5072323;28;20653;-67
2023/03/09 10:39:48;;;;;;;0.60;0.60;;;11.20;99.90;;;;;;5071641;28;20625;-68
2023/03/09 10:42:19;;;;;;;10.13;0.77;;;11.00;99.90;;;;;;5072331;28;20654;-68
2023/03/09 10:44:56;;;;;;;0.97;0.43;;;10.90;99.90;;;;;;5072933;28;20978;-68
2023/03/09 10:47:23;;;;;;;0.30;0.20;;;11.50;99.90;;;;;;5068603;28;20649;-68
2023/03/09 10:50:10;;;;;;;0.30;0.30;;;12.00;99.90;;;;;;5071958;28;20741;-68
2023/03/09 10:52:37;;;;;;;4.23;2.33;;;11.80;99.90;;;;;;5071929;28;20636;-68
2023/03/09 10:55:23;;;;;;;0.97;0.60;;;11.60;99.00;;;;;;5072373;28;20836;-69
2023/03/09 10:57:56;;;;;;;3.03;0.60;;;11.70;99.20;;;;;;5052517;28;20626;-68
2023/03/09 11:00:25;;;;;;;0.70;0.57;;;11.80;97.60;;;;;;5051627;28;22058;-69
2023/03/09 11:02:53;;;;;;;1.60;0.70;;;11.90;99.90;;;;;;5066712;28;21280;-68
2023/03/09 11:05:22;;;;;;;0.40;0.40;;;11.80;98.20;;;;;;5071875;28;20617;-68
2023/03/09 11:07:55;;;;;;;1.33;1.13;;;11.80;97.20;;;;;;5059427;28;20658;-68
2023/03/09 11:10:26;;;;;;;0.40;0.40;;;11.80;96.00;;;;;;5057447;28;20626;-68
2023/03/09 11:12:54;;;;;;;0.57;0.40;;;12.10;99.90;;;;;;5071919;28;20629;-68
2023/03/09 11:15:27;;;;;;;0.30;0.20;;;11.80;99.90;;;;;;5070865;28;20661;-68
2023/03/09 11:17:55;;;;;;;3.50;0.63;;;11.90;96.30;;;;;;5071987;28;20625;-67
2023/03/09 11:20:31;;;;;;;0.30;0.20;;;12.10;96.20;;;;;;5059001;28;20626;-67
2023/03/09 11:23:01;;;;;;;8.50;0.47;;;12.20;95.90;;;;;;5063017;28;20720;-68
2023/03/09 11:25:40;;;;;;;0.40;0.30;;;12.20;94.90;;;;;;5069500;28;20660;-68
2023/03/09 11:28:16;;;;;;;1.43;0.60;;;12.30;95.90;;;;;;5071148;28;20725;-67
2023/03/09 11:30:44;;;;;;;0.43;0.23;;;12.50;94.20;;;;;;5071986;28;20744;-67
2023/03/09 11:33:18;;;;;;;0.97;0.90;;;12.50;94.40;;;;;;5067478;28;20681;-68
2023/03/09 11:35:48;;;;;;;1.90;0.57;;;12.30;96.30;;;;;;5072081;28;20652;-68
2023/03/09 11:38:19;;;;;;;0.53;0.33;;;12.40;93.90;;;;;;5070025;28;20634;-67
2023/03/09 11:40:49;;;;;;;0.30;0.20;;;12.40;92.90;;;;;;5071678;28;20667;-68
2023/03/09 11:43:22;;;;;;;4.03;1.80;;;12.30;94.10;;;;;;5071362;28;20633;-67
2023/03/09 11:45:49;;;;;;;3.20;0.73;;;12.50;94.20;;;;;;5071316;28;21071;-67
2023/03/09 11:48:22;;;;;;;0.60;0.30;;;12.70;93.00;;;;;;5070713;28;20720;-67
2023/03/09 11:50:59;;;;;;;0.53;0.53;;;12.70;92.90;;;;;;5070960;28;20747;-67
2023/03/09 11:53:31;;;;;;;0.40;0.30;;;12.80;92.70;;;;;;5069647;28;20661;-68
2023/03/09 11:56:09;;;;;;;0.30;0.20;;;12.80;92.30;;;;;;5070870;28;21573;-68
2023/03/09 11:58:40;;;;;;;1.80;0.70;;;12.80;92.60;;;;;;5070168;28;21032;-68
2023/03/09 12:01:17;;;;;;;0.40;0.33;;;12.70;92.60;;;;;;5070441;28;20648;-69
2023/03/09 12:03:50;;;;;;;0.30;0.20;;;12.80;92.80;;;;;;5070896;28;20629;-68
2023/03/09 12:06:39;;;;;;;0.30;0.30;;;12.80;92.90;;;;;;5070796;28;20642;-68
2023/03/09 12:09:11;;;;;;;1.83;0.50;;;12.70;92.70;;;;;;5069989;28;20618;-68
2023/03/09 12:11:42;;;;;;;0.40;0.30;;;12.70;92.50;;;;;;5069980;28;20653;-70
2023/03/09 12:14:19;;;;;;;0.50;0.43;;;12.80;93.00;;;;;;5071033;28;20667;-68
2023/03/09 12:16:48;;;;;;;1.13;0.83;;;12.80;93.10;;;;;;5069593;28;21067;-68
2023/03/09 12:19:17;;;;;;;1.87;0.93;;;13.00;92.70;;;;;;5069787;28;20629;-68
2023/03/09 12:21:47;;;;;;;0.30;0.30;;;13.10;92.60;;;;;;5070923;28;21006;-68
2023/03/09 12:24:35;;;;;;;2.43;0.50;;;13.00;92.40;;;;;;5058570;28;20614;-68
2023/03/09 12:27:16;;;;;;;2.60;0.50;;;12.90;92.80;;;;;;5069458;28;20698;-67
2023/03/09 12:29:47;;;;;;;1.00;0.63;;;13.10;92.50;;;;;;5069617;28;20716;-69
2023/03/09 12:32:36;;;;;;;0.50;0.50;;;13.00;97.70;;;;;;5070255;28;20761;-68
2023/03/09 12:35:09;;;;;;;8.63;1.00;;;13.00;92.20;;;;;;5065914;28;20669;-68
2023/03/09 12:38:16;;;;;;;2.00;1.80;;;13.10;92.40;;;;;;5070500;28;20617;-68
2023/03/09 12:40:43;;;;;;;0.67;0.30;;;12.90;91.30;;;;;;5068973;28;20688;-68
2023/03/09 12:43:34;;;;;;;0.73;0.40;;;13.00;92.50;;;;;;5069897;28;20625;-68
2023/03/09 12:46:34;;;;;;;0.80;0.60;;;13.00;92.10;;;;;;5057109;28;20653;-68
2023/03/09 12:49:02;;;;;;;24.37;0.83;;;13.20;95.60;;;;;;5068070;28;20629;-69
2023/03/09 12:51:37;;;;;;;2.10;1.27;;;13.00;91.80;;;;;;5055585;28;20999;-67
2023/03/09 12:54:18;;;;;;;0.40;0.40;;;13.10;92.20;;;;;;5070063;28;20759;-67
2023/03/09 12:56:45;;;;;;;0.30;0.20;;;13.00;91.30;;;;;;5069913;28;20699;-68
2023/03/09 12:59:21;;;;;;;1.00;0.60;;;12.90;91.50;;;;;;5069098;28;20654;-68
2023/03/09 13:01:49;;;;;;;0.30;0.20;;;12.80;91.40;;;;;;5068987;28;21491;-68
2023/03/09 13:04:18;;;;;;;2.20;0.30;;;12.80;91.80;;;;;;5069630;28;20733;-68
2023/03/09 13:06:52;;;;;;;1.17;0.60;;;12.70;91.10;;;;;;5068957;28;20656;-68
2023/03/09 13:09:23;;;;;;;0.30;0.20;;;12.70;91.10;;;;;;5069393;28;21201;-68
2023/03/09 13:11:51;;;;;;;0.40;0.40;;;12.80;91.20;;;;;;5069308;28;20700;-68